createdAt,value
2019-02-15T00:00:09.911Z,32.10
2019-02-15T00:02:39.668Z,29.05
2019-02-15T00:05:08.281Z,29.98
2019-02-15T00:07:38.527Z,29.65
2019-02-15T00:10:07.627Z,29.40
2019-02-15T00:12:36.112Z,34.45
2019-02-15T00:15:05.802Z,30.57
2019-02-15T00:17:35.999Z,35.68
2019-02-15T00:20:08.927Z,30.90
2019-02-15T00:22:37.389Z,27.98
2019-02-15T00:25:06.482Z,30.62
2019-02-15T00:27:35.052Z,28.25
2019-02-15T00:30:06.552Z,32.00
2019-02-15T00:32:36.233Z,28.17
2019-02-15T00:35:05.240Z,25.05
2019-02-15T00:37:33.700Z,29.75
2019-02-15T00:40:02.219Z,32.48
2019-02-15T00:42:30.706Z,31.02
2019-02-15T00:44:59.163Z,29.23
2019-02-15T00:47:36.532Z,31.07
2019-02-15T00:50:08.988Z,33.35
2019-02-15T00:52:50.774Z,30.32
2019-02-15T00:55:27.637Z,34.80
2019-02-15T00:58:00.949Z,26.15
2019-02-15T01:00:39.824Z,26.05
2019-02-15T01:03:19.107Z,27.75
2019-02-15T01:05:55.321Z,25.70
2019-02-15T01:08:31.462Z,26.02
2019-02-15T01:11:04.277Z,26.97
2019-02-15T01:13:32.737Z,29.07
2019-02-15T01:16:01.179Z,29.02
2019-02-15T01:18:29.651Z,24.77
2019-02-15T01:20:58.104Z,26.90
2019-02-15T01:23:26.551Z,25.82
2019-02-15T01:25:56.688Z,28.38
2019-02-15T01:28:29.624Z,30.68
2019-02-15T01:31:08.764Z,26.27
2019-02-15T01:33:48.049Z,26.40
2019-02-15T01:36:21.048Z,27.67
2019-02-15T01:38:51.135Z,29.70
2019-02-15T01:41:30.272Z,23.47
2019-02-15T01:44:00.368Z,26.30
2019-02-15T01:46:33.199Z,27.02
2019-02-15T01:49:01.668Z,24.12
2019-02-15T01:51:30.219Z,24.43
2019-02-15T01:53:58.683Z,25.85
2019-02-15T01:56:27.240Z,24.55
2019-02-15T01:58:55.688Z,25.55
2019-02-15T02:01:24.703Z,25.60
2019-02-15T02:03:53.263Z,26.05
2019-02-15T02:06:21.898Z,22.87
2019-02-15T02:08:50.437Z,25.27
2019-02-15T02:11:19.053Z,26.07
2019-02-15T02:13:49.631Z,23.50
2019-02-15T02:16:17.825Z,25.80
2019-02-15T02:18:46.306Z,21.52
2019-02-15T02:21:14.762Z,21.95
2019-02-15T02:23:43.214Z,22.67
2019-02-15T02:26:12.163Z,23.70
2019-02-15T02:28:41.288Z,22.58
2019-02-15T02:31:09.822Z,24.82
2019-02-15T02:33:38.359Z,21.33
2019-02-15T02:36:06.812Z,19.92
2019-02-15T02:38:35.347Z,24.57
2019-02-15T02:41:03.977Z,19.05
2019-02-15T02:43:32.566Z,19.52
2019-02-15T02:46:01.136Z,20.43
2019-02-15T02:48:29.591Z,17.48
2019-02-15T02:50:58.034Z,19.02
2019-02-15T02:53:26.541Z,22.07
2019-02-15T02:55:55.587Z,18.42
2019-02-15T02:58:24.110Z,16.15
2019-02-15T03:00:52.642Z,15.20
2019-02-15T03:03:21.107Z,17.90
2019-02-15T03:05:49.613Z,17.45
2019-02-15T03:08:18.158Z,18.45
2019-02-15T03:10:46.620Z,15.85
2019-02-15T03:13:15.065Z,17.95
2019-02-15T03:15:46.727Z,16.75
2019-02-15T03:18:16.924Z,16.65
2019-02-15T03:20:45.379Z,16.40
2019-02-15T03:23:13.867Z,15.35
2019-02-15T03:25:42.342Z,13.80
2019-02-15T03:28:10.817Z,16.93
2019-02-15T03:30:39.344Z,15.93
2019-02-15T03:33:07.834Z,16.15
2019-02-15T03:35:36.433Z,18.07
2019-02-15T03:38:10.211Z,17.57
2019-02-15T03:40:40.228Z,11.10
2019-02-15T03:43:10.034Z,17.77
2019-02-15T03:45:38.520Z,14.28
2019-02-15T03:48:07.052Z,12.70
2019-02-15T03:50:35.527Z,18.27
2019-02-15T03:53:04.681Z,15.98
2019-02-15T03:55:33.257Z,15.43
2019-02-15T03:58:01.810Z,18.57
2019-02-15T04:00:30.462Z,15.88
2019-02-15T04:02:58.982Z,14.18
2019-02-15T04:05:27.599Z,17.48
2019-02-15T04:07:56.336Z,15.20
2019-02-15T04:10:24.819Z,15.50
2019-02-15T04:12:53.276Z,14.85
2019-02-15T04:15:21.803Z,14.75
2019-02-15T04:17:50.935Z,14.43
2019-02-15T04:20:19.400Z,13.73
2019-02-15T04:22:47.960Z,17.40
2019-02-15T04:25:16.441Z,12.85
2019-02-15T04:27:46.186Z,20.25
2019-02-15T04:30:14.634Z,15.28
2019-02-15T04:32:43.178Z,14.20
2019-02-15T04:35:11.667Z,16.10
2019-02-15T04:37:40.139Z,15.98
2019-02-15T04:40:09.729Z,14.93
2019-02-15T04:42:38.344Z,15.25
2019-02-15T04:45:07.643Z,16.87
2019-02-15T04:47:36.158Z,15.38
2019-02-15T04:50:06.471Z,16.87
2019-02-15T04:52:34.921Z,17.12
2019-02-15T04:55:04.026Z,17.52
2019-02-15T04:57:32.660Z,13.08
2019-02-15T05:00:01.108Z,16.80
2019-02-15T05:02:29.591Z,16.50
2019-02-15T05:04:58.080Z,18.50
2019-02-15T05:07:26.554Z,15.28
2019-02-15T05:09:55.093Z,19.50
2019-02-15T05:12:23.582Z,18.65
2019-02-15T05:14:53.405Z,14.10
2019-02-15T05:17:22.061Z,13.68
2019-02-15T05:19:50.528Z,18.02
2019-02-15T05:22:18.989Z,18.75
2019-02-15T05:24:47.431Z,19.32
2019-02-15T05:27:15.907Z,19.30
2019-02-15T05:29:44.352Z,14.28
2019-02-15T05:32:13.858Z,16.87
2019-02-15T05:34:42.449Z,16.30
2019-02-15T05:37:10.946Z,18.62
2019-02-15T05:39:39.495Z,16.12
2019-02-15T05:42:08.054Z,14.58
2019-02-15T05:44:36.559Z,18.60
2019-02-15T05:47:05.004Z,16.52
2019-02-15T05:49:33.577Z,12.82
2019-02-15T05:52:02.030Z,14.85
2019-02-15T05:54:30.483Z,17.23
2019-02-15T05:56:59.134Z,15.13
2019-02-15T05:59:27.654Z,13.18
2019-02-15T06:01:56.190Z,17.17
2019-02-15T06:04:24.726Z,16.07
2019-02-15T06:06:53.164Z,14.28
2019-02-15T06:09:21.618Z,19.60
2019-02-15T06:11:50.087Z,18.27
2019-02-15T06:14:18.536Z,25.60
2019-02-15T06:16:47.103Z,20.80
2019-02-15T06:19:15.627Z,19.40
2019-02-15T06:21:44.076Z,15.53
2019-02-15T06:24:12.532Z,21.85
2019-02-15T06:26:42.859Z,19.55
2019-02-15T06:29:11.298Z,21.30
2019-02-15T06:31:39.738Z,12.82
2019-02-15T06:34:08.214Z,20.82
2019-02-15T06:36:36.902Z,17.67
2019-02-15T06:39:07.107Z,20.50
2019-02-15T06:41:37.564Z,17.95
2019-02-15T06:44:06.019Z,19.80
2019-02-15T06:46:34.535Z,23.75
2019-02-15T06:49:03.086Z,18.82
2019-02-15T06:51:31.536Z,24.80
2019-02-15T06:54:00.003Z,32.50
2019-02-15T06:56:28.474Z,21.62
2019-02-15T06:58:58.588Z,16.75
2019-02-15T07:01:45.319Z,20.60
2019-02-15T07:04:20.917Z,16.80
2019-02-15T07:06:49.604Z,17.57
2019-02-15T07:09:18.075Z,18.12
2019-02-15T07:11:46.612Z,15.15
2019-02-15T07:14:15.063Z,17.73
2019-02-15T07:16:44.732Z,18.92
2019-02-15T07:19:13.264Z,20.00
2019-02-15T07:21:41.735Z,20.57
2019-02-15T07:24:10.231Z,19.27
2019-02-15T07:26:38.784Z,23.73
2019-02-15T07:29:08.796Z,27.37
2019-02-15T07:31:38.903Z,18.23
2019-02-15T07:34:07.366Z,22.70
2019-02-15T07:36:36.722Z,20.12
2019-02-15T07:39:06.145Z,19.87
2019-02-15T07:41:34.606Z,19.75
2019-02-15T07:44:03.115Z,15.00
2019-02-15T07:46:31.681Z,20.27
2019-02-15T07:49:01.472Z,15.10
2019-02-15T07:51:31.078Z,16.85
2019-02-15T07:53:59.535Z,20.70
2019-02-15T07:56:49.071Z,15.68
2019-02-15T07:59:17.570Z,21.07
2019-02-15T08:01:47.356Z,16.48
2019-02-15T08:04:17.356Z,18.07
2019-02-15T08:06:46.055Z,15.95
2019-02-15T08:09:14.512Z,18.70
2019-02-15T08:11:42.965Z,18.98
2019-02-15T08:14:14.790Z,19.85
2019-02-15T08:16:41.677Z,15.20
2019-02-15T08:19:10.129Z,22.27
2019-02-15T08:21:39.682Z,14.95
2019-02-15T08:24:08.165Z,14.20
2019-02-15T08:26:36.891Z,16.93
2019-02-15T08:29:05.362Z,14.70
2019-02-15T08:31:33.822Z,14.75
2019-02-15T08:34:02.339Z,13.15
2019-02-15T08:36:36.167Z,13.98
2019-02-15T08:39:07.050Z,14.35
2019-02-15T08:41:35.631Z,16.37
2019-02-15T08:44:04.489Z,20.52
2019-02-15T08:46:37.941Z,15.98
2019-02-15T08:49:06.397Z,16.93
2019-02-15T08:51:34.907Z,14.53
2019-02-15T08:54:03.351Z,18.57
2019-02-15T08:56:31.823Z,18.50
2019-02-15T08:59:01.998Z,15.75
2019-02-15T09:01:30.468Z,15.58
2019-02-15T09:03:58.927Z,13.80
2019-02-15T09:06:27.475Z,17.65
2019-02-15T09:08:55.936Z,11.97
2019-02-15T09:11:24.398Z,14.50
2019-02-15T09:13:52.868Z,20.10
2019-02-15T09:16:21.513Z,15.90
2019-02-15T09:18:49.953Z,16.42
2019-02-15T09:21:18.435Z,13.18
2019-02-15T09:23:46.949Z,11.63
2019-02-15T09:26:18.409Z,17.07
2019-02-15T09:28:57.466Z,12.30
2019-02-15T09:31:25.930Z,14.65
2019-02-15T09:33:55.692Z,11.68
2019-02-15T09:36:24.172Z,13.13
2019-02-15T09:38:52.716Z,14.97
2019-02-15T09:41:21.171Z,15.97
2019-02-15T09:43:49.651Z,13.60
2019-02-15T09:46:20.205Z,12.85
2019-02-15T09:48:48.341Z,14.30
2019-02-15T09:51:16.823Z,14.38
2019-02-15T09:53:47.686Z,12.98
2019-02-15T09:56:16.174Z,14.13
2019-02-15T09:58:44.824Z,12.10
2019-02-15T10:01:13.341Z,11.28
2019-02-15T10:03:41.788Z,14.73
2019-02-15T10:06:10.288Z,10.68
2019-02-15T10:08:39.644Z,12.30
2019-02-15T10:11:08.116Z,11.57
2019-02-15T10:13:36.723Z,12.68
2019-02-15T10:16:05.359Z,12.33
2019-02-15T10:18:33.812Z,15.18
2019-02-15T10:21:02.312Z,10.48
2019-02-15T10:23:32.183Z,11.53
2019-02-15T10:26:01.021Z,12.70
2019-02-15T10:28:31.189Z,16.20
2019-02-15T10:31:00.908Z,15.08
2019-02-15T10:33:32.974Z,12.70
2019-02-15T10:36:01.426Z,9.90
2019-02-15T10:38:32.069Z,14.23
2019-02-15T10:41:00.531Z,12.45
2019-02-15T10:43:28.978Z,9.93
2019-02-15T10:45:57.427Z,11.38
2019-02-15T10:48:26.160Z,14.40
2019-02-15T10:51:00.699Z,9.23
2019-02-15T10:53:28.911Z,9.15
2019-02-15T10:55:59.109Z,9.35
2019-02-15T10:58:28.213Z,11.43
2019-02-15T11:00:57.419Z,10.25
2019-02-15T11:03:25.889Z,9.10
2019-02-15T11:05:58.444Z,10.15
2019-02-15T11:08:26.867Z,9.75
2019-02-15T11:10:55.359Z,11.85
2019-02-15T11:13:23.819Z,10.43
2019-02-15T11:15:52.340Z,8.28
2019-02-15T11:18:23.131Z,9.35
2019-02-15T11:20:51.575Z,8.55
2019-02-15T11:23:20.024Z,8.50
2019-02-15T11:25:48.892Z,9.05
2019-02-15T11:28:17.481Z,10.80
2019-02-15T11:30:45.935Z,7.50
2019-02-15T11:33:14.704Z,8.40
2019-02-15T11:35:44.738Z,8.65
2019-02-15T11:38:13.433Z,7.35
2019-02-15T11:40:41.976Z,8.25
2019-02-15T11:43:10.417Z,9.78
2019-02-15T11:45:38.871Z,9.45
2019-02-15T11:48:07.635Z,11.75
2019-02-15T11:50:36.231Z,7.80
2019-02-15T11:53:04.934Z,8.00
2019-02-15T11:55:52.744Z,5.53
2019-02-15T11:58:25.801Z,8.35
2019-02-15T12:00:56.789Z,7.40
2019-02-15T12:03:25.276Z,8.25
2019-02-15T12:05:53.918Z,6.87
2019-02-15T12:08:23.509Z,5.60
2019-02-15T12:10:51.989Z,5.58
2019-02-15T12:13:20.433Z,4.83
2019-02-15T12:15:48.886Z,6.20
2019-02-15T12:18:17.374Z,6.70
2019-02-15T12:20:45.815Z,7.97
2019-02-15T12:23:14.332Z,8.27
2019-02-15T12:25:43.581Z,5.42
2019-02-15T12:28:12.044Z,7.15
2019-02-15T12:30:40.491Z,7.35
2019-02-15T12:33:09.971Z,8.30
2019-02-15T12:35:38.442Z,5.70
2019-02-15T12:38:07.088Z,6.37
2019-02-15T12:40:35.568Z,7.33
2019-02-15T12:43:04.653Z,8.00
2019-02-15T12:45:33.195Z,7.53
2019-02-15T12:48:01.842Z,8.33
2019-02-15T12:50:30.307Z,7.80
2019-02-15T12:52:58.842Z,5.25
2019-02-15T12:55:29.339Z,7.25
2019-02-15T12:57:57.809Z,6.10
2019-02-15T13:00:29.332Z,6.95
2019-02-15T13:02:57.845Z,9.05
2019-02-15T13:05:27.805Z,8.68
2019-02-15T13:07:56.681Z,6.65
2019-02-15T13:10:31.085Z,9.65
2019-02-15T13:12:59.575Z,8.85
2019-02-15T13:15:28.052Z,8.30
2019-02-15T13:17:56.530Z,7.97
2019-02-15T13:20:25.064Z,8.73
2019-02-15T13:22:53.550Z,7.67
2019-02-15T13:25:22.215Z,6.90
2019-02-15T13:27:50.669Z,6.25
2019-02-15T13:30:19.130Z,6.58
2019-02-15T13:32:47.599Z,8.48
2019-02-15T13:35:23.872Z,4.75
2019-02-15T13:37:52.976Z,7.87
2019-02-15T13:40:21.439Z,6.03
2019-02-15T13:42:50.149Z,14.28
2019-02-15T13:45:18.754Z,6.22
2019-02-15T13:47:47.221Z,7.28
2019-02-15T13:50:19.197Z,8.75
2019-02-15T13:52:47.165Z,9.93
2019-02-15T13:55:15.614Z,6.12
2019-02-15T13:57:44.326Z,7.25
2019-02-15T14:00:16.473Z,7.90
2019-02-15T14:02:44.928Z,6.83
2019-02-15T14:05:13.684Z,13.90
2019-02-15T14:07:42.148Z,10.25
2019-02-15T14:10:13.846Z,6.60
2019-02-15T14:12:42.432Z,8.08
2019-02-15T14:15:12.319Z,15.75
2019-02-15T14:17:46.267Z,12.18
2019-02-15T14:20:13.244Z,8.05
2019-02-15T14:22:41.784Z,10.98
2019-02-15T14:25:13.360Z,9.05
2019-02-15T14:27:41.919Z,8.60
2019-02-15T14:30:15.650Z,11.23
2019-02-15T14:32:44.149Z,9.35
2019-02-15T14:35:14.185Z,7.92
2019-02-15T14:37:44.858Z,7.15
2019-02-15T14:40:14.099Z,11.68
2019-02-15T14:42:42.570Z,7.62
2019-02-15T14:45:13.144Z,12.25
2019-02-15T14:47:41.859Z,13.68
2019-02-15T14:50:11.546Z,12.73
2019-02-15T14:52:40.119Z,11.40
2019-02-15T14:55:10.031Z,10.70
2019-02-15T14:57:40.727Z,8.80
2019-02-15T15:00:11.974Z,9.10
2019-02-15T15:02:42.232Z,8.78
2019-02-15T15:05:12.933Z,10.00
2019-02-15T15:07:41.507Z,9.45
2019-02-15T15:10:10.802Z,9.60
2019-02-15T15:12:39.350Z,12.60
2019-02-15T15:15:11.660Z,11.55
2019-02-15T15:17:40.384Z,9.88
2019-02-15T15:20:11.491Z,12.45
2019-02-15T15:22:41.494Z,9.03
2019-02-15T15:25:12.567Z,8.23
2019-02-15T15:27:41.468Z,9.08
2019-02-15T15:30:12.246Z,13.83
2019-02-15T15:32:40.792Z,12.98
2019-02-15T15:35:11.112Z,11.43
2019-02-15T15:37:39.847Z,11.03
2019-02-15T15:40:11.357Z,10.08
2019-02-15T15:42:39.908Z,10.63
2019-02-15T15:45:11.431Z,11.03
2019-02-15T15:47:41.842Z,8.43
2019-02-15T15:50:13.987Z,12.37
2019-02-15T15:52:42.650Z,10.07
2019-02-15T15:55:12.997Z,19.30
2019-02-15T15:57:41.589Z,10.25
2019-02-15T16:00:13.118Z,10.78
2019-02-15T16:02:44.257Z,12.95
2019-02-15T16:05:12.851Z,15.23
2019-02-15T16:08:03.069Z,11.08
2019-02-15T16:10:31.535Z,12.03
2019-02-15T16:13:01.608Z,11.65
2019-02-15T16:15:31.128Z,12.80
2019-02-15T16:17:59.673Z,14.85
2019-02-15T16:20:29.485Z,14.78
2019-02-15T16:22:57.975Z,13.35
2019-02-15T16:25:26.456Z,10.93
2019-02-15T16:27:59.851Z,14.70
2019-02-15T16:30:28.416Z,11.43
2019-02-15T16:32:56.968Z,15.28
2019-02-15T16:35:26.725Z,15.03
2019-02-15T16:37:55.290Z,19.25
2019-02-15T16:40:23.775Z,16.40
2019-02-15T16:42:53.366Z,11.03
2019-02-15T16:45:23.581Z,31.12
2019-02-15T16:47:52.205Z,15.53
2019-02-15T16:50:20.658Z,18.05
2019-02-15T16:52:50.475Z,11.85
2019-02-15T16:55:20.648Z,20.70
2019-02-15T16:57:50.036Z,18.23
2019-02-15T17:00:19.647Z,13.40
2019-02-15T17:02:48.280Z,13.15
2019-02-15T17:05:19.811Z,18.00
2019-02-15T17:07:48.874Z,14.55
2019-02-15T17:10:18.322Z,14.20
2019-02-15T17:12:48.715Z,16.25
2019-02-15T17:15:17.252Z,15.58
2019-02-15T17:17:45.868Z,15.63
2019-02-15T17:20:14.350Z,19.65
2019-02-15T17:22:42.939Z,21.65
2019-02-15T17:25:12.311Z,20.10
2019-02-15T17:27:40.978Z,18.20
2019-02-15T17:30:12.681Z,20.30
2019-02-15T17:32:41.301Z,22.27
2019-02-15T17:35:10.995Z,21.23
2019-02-15T17:37:39.773Z,20.02
2019-02-15T17:40:10.907Z,21.55
2019-02-15T17:42:40.640Z,18.32
2019-02-15T17:45:12.365Z,18.05
2019-02-15T17:47:41.268Z,20.17
2019-02-15T17:50:11.167Z,20.17
2019-02-15T17:52:39.817Z,30.97
2019-02-15T17:55:10.146Z,35.45
2019-02-15T17:57:38.800Z,83.60
2019-02-15T18:00:12.996Z,72.20
2019-02-15T18:02:41.546Z,43.15
2019-02-15T18:05:16.815Z,34.30
2019-02-15T18:07:50.619Z,58.48
2019-02-15T18:10:19.154Z,39.83
2019-02-15T18:12:49.255Z,29.30
2019-02-15T18:15:17.844Z,25.25
2019-02-15T18:17:53.405Z,24.18
2019-02-15T18:20:21.939Z,27.17
2019-02-15T18:22:50.450Z,23.50
2019-02-15T18:25:18.928Z,20.23
2019-02-15T18:27:48.821Z,17.67
2019-02-15T18:30:17.970Z,18.37
2019-02-15T18:32:47.445Z,18.60
2019-02-15T18:35:15.922Z,20.88
2019-02-15T18:37:50.697Z,23.30
2019-02-15T18:40:19.161Z,25.77
2019-02-15T18:42:47.697Z,30.43
2019-02-15T18:45:17.854Z,47.95
2019-02-15T18:47:48.236Z,54.48
2019-02-15T18:50:25.682Z,96.43
2019-02-15T18:52:55.142Z,33.55
2019-02-15T18:55:23.686Z,30.77
2019-02-15T18:57:52.545Z,34.88
2019-02-15T19:00:22.676Z,25.47
2019-02-15T19:02:53.885Z,18.92
2019-02-15T19:05:22.405Z,18.83
2019-02-15T19:07:50.958Z,19.92
2019-02-15T19:10:23.775Z,19.63
2019-02-15T19:12:53.356Z,18.05
2019-02-15T19:15:21.923Z,19.00
2019-02-15T19:17:51.648Z,17.42
2019-02-15T19:20:22.326Z,25.77
2019-02-15T19:22:50.811Z,24.07
2019-02-15T19:25:22.453Z,18.83
2019-02-15T19:27:52.888Z,17.15
2019-02-15T19:30:33.562Z,16.23
2019-02-15T19:33:05.123Z,22.52
2019-02-15T19:35:36.532Z,16.57
2019-02-15T19:38:06.558Z,23.50
2019-02-15T19:40:36.639Z,20.45
2019-02-15T19:43:08.154Z,18.25
2019-02-15T19:45:36.628Z,27.22
2019-02-15T19:48:05.314Z,28.55
2019-02-15T19:50:35.328Z,31.97
2019-02-15T19:53:06.422Z,25.92
2019-02-15T19:55:34.955Z,55.08
2019-02-15T19:58:03.413Z,39.18
2019-02-15T20:00:35.601Z,45.70
2019-02-15T20:03:04.772Z,27.15
2019-02-15T20:05:33.718Z,37.38
2019-02-15T20:08:03.294Z,30.17
2019-02-15T20:10:33.739Z,25.27
2019-02-15T20:13:02.897Z,18.07
2019-02-15T20:15:31.801Z,32.80
2019-02-15T20:18:00.856Z,27.70
2019-02-15T20:20:29.639Z,26.02
2019-02-15T20:22:59.654Z,26.93
2019-02-15T20:25:29.573Z,23.47
2019-02-15T20:27:58.255Z,22.05
2019-02-15T20:30:29.988Z,24.37
2019-02-15T20:32:59.081Z,26.07
2019-02-15T20:35:27.997Z,24.47
2019-02-15T20:37:56.616Z,22.87
2019-02-15T20:40:25.089Z,23.27
2019-02-15T20:42:58.923Z,26.77
2019-02-15T20:45:28.409Z,26.73
2019-02-15T20:47:58.409Z,24.43
2019-02-15T20:50:28.445Z,22.27
2019-02-15T20:52:56.996Z,24.23
2019-02-15T20:55:26.491Z,20.85
2019-02-15T20:57:55.307Z,26.73
2019-02-15T21:00:26.913Z,25.00
2019-02-15T21:02:57.427Z,26.87
2019-02-15T21:05:28.645Z,34.65
2019-02-15T21:07:57.561Z,31.50
2019-02-15T21:10:26.357Z,29.50
2019-02-15T21:12:55.928Z,26.00
2019-02-15T21:15:24.896Z,27.30
2019-02-15T21:17:54.085Z,22.80
2019-02-15T21:20:24.565Z,21.00
2019-02-15T21:22:55.172Z,25.32
2019-02-15T21:25:24.408Z,24.23
2019-02-15T21:27:53.705Z,24.50
2019-02-15T21:30:23.840Z,29.57
2019-02-15T21:32:55.131Z,26.87
2019-02-15T21:35:25.185Z,30.00
2019-02-15T21:37:53.864Z,29.52
2019-02-15T21:40:22.347Z,26.77
2019-02-15T21:42:52.165Z,30.62
2019-02-15T21:45:21.267Z,24.47
2019-02-15T21:47:50.163Z,25.50
2019-02-15T21:50:18.687Z,26.10
2019-02-15T21:52:50.148Z,42.13
2019-02-15T21:55:18.620Z,37.73
2019-02-15T21:57:47.173Z,32.25
2019-02-15T22:00:22.618Z,31.10
2019-02-15T22:02:52.260Z,29.67
2019-02-15T22:05:23.409Z,49.60
2019-02-15T22:07:52.066Z,47.33
2019-02-15T22:10:20.616Z,33.40
2019-02-15T22:12:49.135Z,36.25
2019-02-15T22:15:19.257Z,32.05
2019-02-15T22:17:47.735Z,43.83
2019-02-15T22:20:26.247Z,46.63
2019-02-15T22:22:51.848Z,41.83
2019-02-15T22:25:20.340Z,40.65
2019-02-15T22:27:50.312Z,36.33
2019-02-15T22:30:20.696Z,30.40
2019-02-15T22:32:49.220Z,28.52
2019-02-15T22:35:17.748Z,33.83
2019-02-15T22:37:46.345Z,27.87
2019-02-15T22:40:31.615Z,26.50
2019-02-15T22:43:20.975Z,39.73
2019-02-15T22:45:50.209Z,37.17
2019-02-15T22:48:19.134Z,31.12
2019-02-15T22:50:47.735Z,35.25
2019-02-15T22:53:16.215Z,33.28
2019-02-15T22:55:44.741Z,28.70
2019-02-15T22:58:13.309Z,27.87
2019-02-15T23:00:54.350Z,29.65
2019-02-15T23:03:25.464Z,26.48
2019-02-15T23:05:54.018Z,29.40
2019-02-15T23:08:22.545Z,24.80
2019-02-15T23:10:51.114Z,30.27
2019-02-15T23:13:19.639Z,25.63
2019-02-15T23:15:48.183Z,25.37
2019-02-15T23:18:18.798Z,28.30
2019-02-15T23:20:46.911Z,29.60
2019-02-15T23:23:16.910Z,28.12
2019-02-15T23:25:47.580Z,25.40
2019-02-15T23:28:16.147Z,28.40
2019-02-15T23:30:44.594Z,33.23
2019-02-15T23:33:13.123Z,39.67
2019-02-15T23:35:41.739Z,32.58
2019-02-15T23:38:10.174Z,22.98
2019-02-15T23:40:38.759Z,25.40
2019-02-15T23:43:08.686Z,25.20
2019-02-15T23:45:39.650Z,20.45
2019-02-15T23:48:10.080Z,23.95
2019-02-15T23:50:38.552Z,28.30
2019-02-15T23:53:07.091Z,25.10
2019-02-15T23:55:35.608Z,22.67
2019-02-15T23:58:07.680Z,21.97
